Etusivu
METAR-TAF:

METAR-TAF

Lentoasemat :

Henderson City-County Airport

Henderson, Kentucky, Yhdysvallat

Leveyspiiri: 37-49N, Pituuspiiri: 087-41W, korkeus merenpinnasta: 117 m

Tämänhetkinen sää

Tämä raportti tehtiin 20 minuuttia sitten, kello 04.56 UTC
Tuuli 6 kn pohjoisen/luoteesta
Lämpötila 9°C
Kosteus 87%
Ilmanpaine 1019 hPa
Näkyvyys: 16.1 km
Hajanaisia pilviä 1600 ft:n korkeudessa
Pilvistä 8000 ft:n korkeudessa

METAR: KEHR 050456Z AUTO 33006KT 10SM SCT016 OVC080 09/07 A3009 RMK AO2 SLP191 T00890072

Aika: 00:16 (05:16 UTC)


TAF: puuttuu

Säähavainnot ja -ennusteet yli 4000 lentoasemalta (METAR- ja TAF-raportit).

Käytössä olevat sääasemat on merkitty karttaan keltaisilla ja punaisilla pisteillä.

Aseta hiiri pisteen päälle nähdäksesi sääaseman nimen.

Klikkaa sitten nähdäksesi säähavainnot ja -ennusteet.

Kartan vaihtaminen: klikkaa mustalla rastilla varustettuja vihreitä pisteitä, niin voit zoomata sisään; viivalla varustettua vihreää pistettä, niin voit zoomata ulos tai vihreitä nuolia, niin pääset viereisille kartoille.


METAR-TAF: